sensor_id;sensor_type;location;lat;lon;timestamp;pressure;altitude;pressure_sealevel;temperature;humidity
2339;BME280;1180;51.438;6.978;2023-01-23T00:00:41;102045.50;;;5.37;89.83
2339;BME280;1180;51.438;6.978;2023-01-23T00:03:06;102046.34;;;5.37;90.27
2339;BME280;1180;51.438;6.978;2023-01-23T00:05:32;102049.78;;;5.31;90.66
2339;BME280;1180;51.438;6.978;2023-01-23T00:07:57;102042.00;;;5.48;89.89
2339;BME280;1180;51.438;6.978;2023-01-23T00:10:22;102045.41;;;5.46;89.08
2339;BME280;1180;51.438;6.978;2023-01-23T00:12:48;102045.31;;;5.55;88.90
2339;BME280;1180;51.438;6.978;2023-01-23T00:15:14;102056.75;;;5.08;90.69
2339;BME280;1180;51.438;6.978;2023-01-23T00:17:41;102052.41;;;5.19;91.12
2339;BME280;1180;51.438;6.978;2023-01-23T00:20:08;102053.19;;;5.29;90.46
2339;BME280;1180;51.438;6.978;2023-01-23T00:22:34;102046.31;;;5.42;89.61
2339;BME280;1180;51.438;6.978;2023-01-23T00:25:00;102050.59;;;5.35;89.58
2339;BME280;1180;51.438;6.978;2023-01-23T00:27:25;102049.84;;;5.22;90.15
2339;BME280;1180;51.438;6.978;2023-01-23T00:29:51;102048.22;;;5.12;90.40
2339;BME280;1180;51.438;6.978;2023-01-23T00:32:17;102045.81;;;4.93;90.82
2339;BME280;1180;51.438;6.978;2023-01-23T00:34:43;102045.88;;;4.81;92.25
2339;BME280;1180;51.438;6.978;2023-01-23T00:37:09;102038.16;;;4.98;92.01
2339;BME280;1180;51.438;6.978;2023-01-23T00:39:34;102047.31;;;5.22;91.58
2339;BME280;1180;51.438;6.978;2023-01-23T00:41:59;102035.59;;;5.01;92.15
2339;BME280;1180;51.438;6.978;2023-01-23T00:44:25;102041.53;;;5.00;91.59
2339;BME280;1180;51.438;6.978;2023-01-23T00:46:50;102047.50;;;4.96;91.99
2339;BME280;1180;51.438;6.978;2023-01-23T00:49:15;102039.75;;;5.08;92.50
2339;BME280;1180;51.438;6.978;2023-01-23T00:51:42;102040.47;;;5.29;91.43
2339;BME280;1180;51.438;6.978;2023-01-23T00:54:07;102036.09;;;5.43;89.81
2339;BME280;1180;51.438;6.978;2023-01-23T00:56:33;102043.00;;;5.27;90.92
2339;BME280;1180;51.438;6.978;2023-01-23T00:58:58;102049.66;;;5.45;90.73
2339;BME280;1180;51.438;6.978;2023-01-23T01:01:23;102054.69;;;5.55;89.98
2339;BME280;1180;51.438;6.978;2023-01-23T01:03:50;102055.44;;;5.61;89.44
2339;BME280;1180;51.438;6.978;2023-01-23T01:06:16;102052.91;;;5.63;89.27
2339;BME280;1180;51.438;6.978;2023-01-23T01:08:42;102057.97;;;5.66;89.06
2339;BME280;1180;51.438;6.978;2023-01-23T01:11:07;102051.22;;;5.62;88.91
2339;BME280;1180;51.438;6.978;2023-01-23T01:13:33;102061.31;;;5.73;88.86
2339;BME280;1180;51.438;6.978;2023-01-23T01:15:58;102055.38;;;5.71;88.51
2339;BME280;1180;51.438;6.978;2023-01-23T01:18:26;102054.47;;;5.78;88.08
2339;BME280;1180;51.438;6.978;2023-01-23T01:20:53;102054.34;;;5.89;87.34
2339;BME280;1180;51.438;6.978;2023-01-23T01:23:18;102062.88;;;5.86;87.35
2339;BME280;1180;51.438;6.978;2023-01-23T01:25:44;102063.06;;;5.66;87.69
2339;BME280;1180;51.438;6.978;2023-01-23T01:28:10;102061.75;;;5.20;89.94
2339;BME280;1180;51.438;6.978;2023-01-23T01:30:35;102065.16;;;5.20;91.13
2339;BME280;1180;51.438;6.978;2023-01-23T01:33:01;102075.16;;;5.41;91.04
2339;BME280;1180;51.438;6.978;2023-01-23T01:35:26;102076.78;;;5.51;90.13
2339;BME280;1180;51.438;6.978;2023-01-23T01:37:52;102081.06;;;5.46;90.13
2339;BME280;1180;51.438;6.978;2023-01-23T01:40:22;102078.47;;;5.52;89.61
2339;BME280;1180;51.438;6.978;2023-01-23T01:42:53;102086.97;;;5.53;89.12
2339;BME280;1180;51.438;6.978;2023-01-23T01:48:49;102082.63;;;4.16;95.11
2339;BME280;1180;51.438;6.978;2023-01-23T01:53:49;102091.81;;;4.45;95.37
2339;BME280;1180;51.438;6.978;2023-01-23T01:56:18;102091.03;;;4.33;95.66
2339;BME280;1180;51.438;6.978;2023-01-23T01:58:46;102095.28;;;4.24;95.95
2339;BME280;1180;51.438;6.978;2023-01-23T02:01:13;102095.19;;;4.52;95.95
2339;BME280;1180;51.438;6.978;2023-01-23T02:03:38;102100.16;;;4.83;93.52
2339;BME280;1180;51.438;6.978;2023-01-23T02:06:04;102101.75;;;5.01;92.56
2339;BME280;1180;51.438;6.978;2023-01-23T02:08:40;102089.16;;;4.82;92.59
2339;BME280;1180;51.438;6.978;2023-01-23T02:11:07;102091.66;;;4.88;91.93
2339;BME280;1180;51.438;6.978;2023-01-23T02:13:35;102092.38;;;5.06;92.09
2339;BME280;1180;51.438;6.978;2023-01-23T02:16:27;102096.63;;;5.09;91.66
2339;BME280;1180;51.438;6.978;2023-01-23T02:18:57;102099.94;;;5.18;90.65
2339;BME280;1180;51.438;6.978;2023-01-23T02:21:23;102096.50;;;5.24;90.43
2339;BME280;1180;51.438;6.978;2023-01-23T02:26:31;102094.59;;;5.51;89.28
2339;BME280;1180;51.438;6.978;2023-01-23T02:29:01;102096.22;;;5.64;88.74
2339;BME280;1180;51.438;6.978;2023-01-23T02:31:27;102096.22;;;5.60;88.19
2339;BME280;1180;51.438;6.978;2023-01-23T02:33:57;102099.69;;;5.51;88.34
2339;BME280;1180;51.438;6.978;2023-01-23T02:36:26;102098.84;;;5.54;88.37
2339;BME280;1180;51.438;6.978;2023-01-23T02:41:32;102082.75;;;5.47;88.70
2339;BME280;1180;51.438;6.978;2023-01-23T02:44:01;102072.41;;;5.62;88.35
2339;BME280;1180;51.438;6.978;2023-01-23T02:46:27;102073.72;;;5.09;90.25
2339;BME280;1180;51.438;6.978;2023-01-23T02:48:53;102068.50;;;5.24;89.96
2339;BME280;1180;51.438;6.978;2023-01-23T02:51:19;102063.53;;;5.09;91.24
2339;BME280;1180;51.438;6.978;2023-01-23T02:53:46;102055.97;;;4.96;91.70
2339;BME280;1180;51.438;6.978;2023-01-23T02:56:12;102045.88;;;4.79;91.97
2339;BME280;1180;51.438;6.978;2023-01-23T02:58:38;102055.16;;;4.93;92.84
2339;BME280;1180;51.438;6.978;2023-01-23T03:01:23;102056.00;;;4.90;93.04
2339;BME280;1180;51.438;6.978;2023-01-23T03:03:49;102055.00;;;5.17;92.33
2339;BME280;1180;51.438;6.978;2023-01-23T03:06:17;102066.72;;;5.35;90.77
2339;BME280;1180;51.438;6.978;2023-01-23T03:08:43;102059.06;;;5.39;90.39
2339;BME280;1180;51.438;6.978;2023-01-23T03:11:14;102063.22;;;5.51;90.15
2339;BME280;1180;51.438;6.978;2023-01-23T03:13:40;102061.53;;;5.49;89.91
2339;BME280;1180;51.438;6.978;2023-01-23T03:16:06;102075.13;;;5.48;89.79
2339;BME280;1180;51.438;6.978;2023-01-23T03:18:31;102075.97;;;5.47;89.76
2339;BME280;1180;51.438;6.978;2023-01-23T03:21:04;102083.63;;;5.47;89.76
2339;BME280;1180;51.438;6.978;2023-01-23T03:23:30;102088.00;;;5.25;90.72
2339;BME280;1180;51.438;6.978;2023-01-23T03:25:56;102087.22;;;5.17;91.80
2339;BME280;1180;51.438;6.978;2023-01-23T03:28:26;102094.81;;;5.25;91.54
2339;BME280;1180;51.438;6.978;2023-01-23T03:31:11;102091.47;;;5.19;91.62
2339;BME280;1180;51.438;6.978;2023-01-23T03:33:37;102102.47;;;5.20;91.89
2339;BME280;1180;51.438;6.978;2023-01-23T03:36:04;102104.13;;;5.26;91.16
2339;BME280;1180;51.438;6.978;2023-01-23T03:38:30;102110.00;;;5.39;91.08
2339;BME280;1180;51.438;6.978;2023-01-23T03:40:55;102113.34;;;5.42;90.58
2339;BME280;1180;51.438;6.978;2023-01-23T03:43:39;102102.34;;;5.37;90.71
2339;BME280;1180;51.438;6.978;2023-01-23T03:46:04;102106.72;;;5.21;91.02
2339;BME280;1180;51.438;6.978;2023-01-23T03:48:30;102107.59;;;5.14;91.80
2339;BME280;1180;51.438;6.978;2023-01-23T03:50:55;102109.31;;;5.10;92.86
2339;BME280;1180;51.438;6.978;2023-01-23T03:53:20;102108.41;;;5.19;92.61
2339;BME280;1180;51.438;6.978;2023-01-23T03:55:46;102105.94;;;5.10;92.75
2339;BME280;1180;51.438;6.978;2023-01-23T03:58:11;102107.63;;;5.11;92.81
2339;BME280;1180;51.438;6.978;2023-01-23T04:00:38;102103.34;;;5.20;92.81
2339;BME280;1180;51.438;6.978;2023-01-23T04:03:03;102107.59;;;5.12;92.39
2339;BME280;1180;51.438;6.978;2023-01-23T04:05:29;102113.63;;;5.00;93.58
2339;BME280;1180;51.438;6.978;2023-01-23T04:07:54;102106.75;;;5.13;92.85
2339;BME280;1180;51.438;6.978;2023-01-23T04:10:19;102105.03;;;5.22;92.22
2339;BME280;1180;51.438;6.978;2023-01-23T04:12:45;102106.63;;;5.33;92.28
2339;BME280;1180;51.438;6.978;2023-01-23T04:15:11;102113.38;;;5.36;90.97
2339;BME280;1180;51.438;6.978;2023-01-23T04:17:36;102111.69;;;5.37;91.74
2339;BME280;1180;51.438;6.978;2023-01-23T04:20:02;102116.84;;;5.29;91.46
2339;BME280;1180;51.438;6.978;2023-01-23T04:22:28;102116.88;;;5.23;91.55
2339;BME280;1180;51.438;6.978;2023-01-23T04:24:53;102118.53;;;5.31;91.42
2339;BME280;1180;51.438;6.978;2023-01-23T04:27:18;102110.84;;;5.36;91.72
2339;BME280;1180;51.438;6.978;2023-01-23T04:29:44;102112.53;;;5.39;91.80
2339;BME280;1180;51.438;6.978;2023-01-23T04:32:12;102122.63;;;5.46;91.21
2339;BME280;1180;51.438;6.978;2023-01-23T04:34:37;102110.69;;;5.58;90.27
2339;BME280;1180;51.438;6.978;2023-01-23T04:37:02;102112.38;;;5.57;89.01
2339;BME280;1180;51.438;6.978;2023-01-23T04:39:30;102111.00;;;5.17;91.60
2339;BME280;1180;51.438;6.978;2023-01-23T04:41:55;102122.75;;;5.35;91.04
2339;BME280;1180;51.438;6.978;2023-01-23T04:44:20;102117.56;;;5.45;90.95
2339;BME280;1180;51.438;6.978;2023-01-23T04:46:47;102115.06;;;5.42;90.10
2339;BME280;1180;51.438;6.978;2023-01-23T04:49:24;102117.56;;;5.46;89.71
2339;BME280;1180;51.438;6.978;2023-01-23T04:51:50;102113.44;;;5.31;90.86
2339;BME280;1180;51.438;6.978;2023-01-23T04:54:17;102120.09;;;5.48;90.83
2339;BME280;1180;51.438;6.978;2023-01-23T04:56:43;102116.59;;;5.58;90.19
2339;BME280;1180;51.438;6.978;2023-01-23T04:59:09;102108.13;;;5.59;90.00
2339;BME280;1180;51.438;6.978;2023-01-23T05:01:34;102098.03;;;5.45;89.19
2339;BME280;1180;51.438;6.978;2023-01-23T05:04:00;102105.84;;;5.24;91.04
2339;BME280;1180;51.438;6.978;2023-01-23T05:06:25;102107.59;;;5.17;91.29
2339;BME280;1180;51.438;6.978;2023-01-23T05:08:50;102112.63;;;5.23;91.42
2339;BME280;1180;51.438;6.978;2023-01-23T05:11:16;102112.66;;;5.22;91.68
2339;BME280;1180;51.438;6.978;2023-01-23T05:13:42;102109.22;;;5.24;91.62
2339;BME280;1180;51.438;6.978;2023-01-23T05:16:07;102104.22;;;5.16;91.54
2339;BME280;1180;51.438;6.978;2023-01-23T05:18:33;102108.31;;;5.33;90.83
2339;BME280;1180;51.438;6.978;2023-01-23T05:20:58;102115.88;;;5.44;90.93
2339;BME280;1180;51.438;6.978;2023-01-23T05:23:23;102123.47;;;5.50;90.02
2339;BME280;1180;51.438;6.978;2023-01-23T05:25:49;102119.25;;;5.51;89.25
2339;BME280;1180;51.438;6.978;2023-01-23T05:28:14;102117.72;;;5.25;90.85
2339;BME280;1180;51.438;6.978;2023-01-23T05:30:39;102125.25;;;5.37;90.50
2339;BME280;1180;51.438;6.978;2023-01-23T05:33:05;102118.34;;;5.53;90.36
2339;BME280;1180;51.438;6.978;2023-01-23T05:35:30;102125.13;;;5.56;89.32
2339;BME280;1180;51.438;6.978;2023-01-23T05:37:56;102121.94;;;5.27;89.68
2339;BME280;1180;51.438;6.978;2023-01-23T05:40:21;102129.69;;;5.09;90.99
2339;BME280;1180;51.438;6.978;2023-01-23T05:42:47;102134.06;;;4.85;92.91
2339;BME280;1180;51.438;6.978;2023-01-23T05:45:13;102136.66;;;4.75;92.78
2339;BME280;1180;51.438;6.978;2023-01-23T05:47:39;102143.34;;;4.94;93.69
2339;BME280;1180;51.438;6.978;2023-01-23T05:50:05;102143.16;;;5.23;91.90
2339;BME280;1180;51.438;6.978;2023-01-23T05:52:32;102143.03;;;5.43;90.64
2339;BME280;1180;51.438;6.978;2023-01-23T05:54:58;102143.00;;;5.53;88.89
2339;BME280;1180;51.438;6.978;2023-01-23T05:57:23;102145.59;;;5.40;89.77
2339;BME280;1180;51.438;6.978;2023-01-23T05:59:48;102146.38;;;5.53;88.56
2339;BME280;1180;51.438;6.978;2023-01-23T06:02:14;102143.78;;;5.56;88.04
2339;BME280;1180;51.438;6.978;2023-01-23T06:04:39;102141.25;;;5.58;87.54
2339;BME280;1180;51.438;6.978;2023-01-23T06:07:07;102137.75;;;5.68;87.57
2339;BME280;1180;51.438;6.978;2023-01-23T06:09:33;102142.22;;;5.41;88.40
2339;BME280;1180;51.438;6.978;2023-01-23T06:11:59;102147.31;;;5.43;88.87
2339;BME280;1180;51.438;6.978;2023-01-23T06:14:24;102157.34;;;5.61;88.77
2339;BME280;1180;51.438;6.978;2023-01-23T06:16:49;102159.09;;;5.56;88.29
2339;BME280;1180;51.438;6.978;2023-01-23T06:19:15;102163.59;;;5.14;89.97
2339;BME280;1180;51.438;6.978;2023-01-23T06:21:40;102165.16;;;5.37;90.50
2339;BME280;1180;51.438;6.978;2023-01-23T06:24:05;102165.91;;;5.51;89.37
2339;BME280;1180;51.438;6.978;2023-01-23T06:26:31;102168.44;;;5.54;89.05
2339;BME280;1180;51.438;6.978;2023-01-23T06:28:56;102161.78;;;5.34;88.97
2339;BME280;1180;51.438;6.978;2023-01-23T06:31:21;102167.63;;;5.49;88.98
2339;BME280;1180;51.438;6.978;2023-01-23T06:33:50;102170.97;;;5.54;88.61
2339;BME280;1180;51.438;6.978;2023-01-23T06:36:16;102168.47;;;5.48;88.99
2339;BME280;1180;51.438;6.978;2023-01-23T06:38:42;102171.06;;;5.43;88.54
2339;BME280;1180;51.438;6.978;2023-01-23T06:41:08;102177.75;;;5.55;88.30
2339;BME280;1180;51.438;6.978;2023-01-23T06:43:33;102181.94;;;5.67;87.92
2339;BME280;1180;51.438;6.978;2023-01-23T06:45:58;102186.41;;;5.35;89.22
2339;BME280;1180;51.438;6.978;2023-01-23T06:48:24;102191.50;;;5.35;89.83
2339;BME280;1180;51.438;6.978;2023-01-23T06:50:49;102189.72;;;5.44;90.08
2339;BME280;1180;51.438;6.978;2023-01-23T06:53:15;102200.88;;;5.30;90.72
2339;BME280;1180;51.438;6.978;2023-01-23T06:55:40;102201.66;;;5.37;90.33
2339;BME280;1180;51.438;6.978;2023-01-23T06:58:06;102198.13;;;5.58;90.01
2339;BME280;1180;51.438;6.978;2023-01-23T07:00:32;102206.63;;;5.59;89.23
2339;BME280;1180;51.438;6.978;2023-01-23T07:03:00;102205.75;;;5.63;89.72
2339;BME280;1180;51.438;6.978;2023-01-23T07:05:29;102208.31;;;5.60;89.35
2339;BME280;1180;51.438;6.978;2023-01-23T07:07:54;102213.53;;;5.40;90.46
2339;BME280;1180;51.438;6.978;2023-01-23T07:10:20;102219.53;;;5.32;90.89
2339;BME280;1180;51.438;6.978;2023-01-23T07:12:47;102220.38;;;5.28;91.20
2339;BME280;1180;51.438;6.978;2023-01-23T07:15:13;102222.81;;;5.45;91.00
2339;BME280;1180;51.438;6.978;2023-01-23T07:17:38;102225.34;;;5.45;91.02
2339;BME280;1180;51.438;6.978;2023-01-23T07:20:04;102218.50;;;5.60;90.62
2339;BME280;1180;51.438;6.978;2023-01-23T07:22:29;102219.22;;;5.79;89.24
2339;BME280;1180;51.438;6.978;2023-01-23T07:24:55;102232.22;;;5.39;89.88
2339;BME280;1180;51.438;6.978;2023-01-23T07:27:20;102233.13;;;5.27;90.58
2339;BME280;1180;51.438;6.978;2023-01-23T07:29:45;102239.81;;;5.43;91.01
2339;BME280;1180;51.438;6.978;2023-01-23T07:32:11;102239.06;;;5.30;91.55
2339;BME280;1180;51.438;6.978;2023-01-23T07:34:37;102237.25;;;5.48;90.14
2339;BME280;1180;51.438;6.978;2023-01-23T07:37:02;102235.50;;;5.55;89.39
2339;BME280;1180;51.438;6.978;2023-01-23T07:39:27;102241.56;;;5.33;90.14
2339;BME280;1180;51.438;6.978;2023-01-23T07:41:53;102248.53;;;4.88;92.26
2339;BME280;1180;51.438;6.978;2023-01-23T07:44:20;102257.88;;;4.80;93.18
2339;BME280;1180;51.438;6.978;2023-01-23T07:46:46;102251.00;;;5.14;92.89
2339;BME280;1180;51.438;6.978;2023-01-23T07:49:12;102246.69;;;5.26;91.24
2339;BME280;1180;51.438;6.978;2023-01-23T07:51:37;102250.00;;;5.40;91.28
2339;BME280;1180;51.438;6.978;2023-01-23T07:54:02;102256.81;;;5.40;91.00
2339;BME280;1180;51.438;6.978;2023-01-23T07:56:28;102248.34;;;5.33;90.55
2339;BME280;1180;51.438;6.978;2023-01-23T07:58:53;102255.25;;;5.15;91.59
2339;BME280;1180;51.438;6.978;2023-01-23T08:01:18;102260.22;;;5.37;91.60
2339;BME280;1180;51.438;6.978;2023-01-23T08:03:45;102263.53;;;5.53;90.69
2339;BME280;1180;51.438;6.978;2023-01-23T08:06:11;102259.28;;;5.52;90.10
2339;BME280;1180;51.438;6.978;2023-01-23T08:08:37;102257.69;;;5.29;90.43
2339;BME280;1180;51.438;6.978;2023-01-23T08:11:06;102254.28;;;5.37;91.17
2339;BME280;1180;51.438;6.978;2023-01-23T08:13:32;102254.94;;;5.68;90.20
2339;BME280;1180;51.438;6.978;2023-01-23T08:15:58;102245.53;;;5.81;89.00
2339;BME280;1180;51.438;6.978;2023-01-23T08:18:24;102248.09;;;5.76;88.29
2339;BME280;1180;51.438;6.978;2023-01-23T08:20:58;102246.38;;;5.78;88.39
2339;BME280;1180;51.438;6.978;2023-01-23T08:23:29;102252.41;;;5.70;88.66
2339;BME280;1180;51.438;6.978;2023-01-23T08:25:56;102248.16;;;5.69;88.71
2339;BME280;1180;51.438;6.978;2023-01-23T08:28:22;102240.44;;;5.79;88.50
2339;BME280;1180;51.438;6.978;2023-01-23T08:30:49;102254.09;;;5.71;87.53
2339;BME280;1180;51.438;6.978;2023-01-23T08:33:14;102257.47;;;5.73;88.77
2339;BME280;1180;51.438;6.978;2023-01-23T08:39:02;102265.81;;;5.93;87.76
2339;BME280;1180;51.438;6.978;2023-01-23T08:44:49;102271.91;;;5.74;87.95
2339;BME280;1180;51.438;6.978;2023-01-23T08:47:15;102268.50;;;5.73;88.04
2339;BME280;1180;51.438;6.978;2023-01-23T08:49:40;102269.38;;;5.71;88.17
2339;BME280;1180;51.438;6.978;2023-01-23T08:52:06;102262.47;;;5.90;88.27
2339;BME280;1180;51.438;6.978;2023-01-23T08:54:31;102264.97;;;5.95;87.23
2339;BME280;1180;51.438;6.978;2023-01-23T08:56:57;102269.34;;;5.77;87.31
2339;BME280;1180;51.438;6.978;2023-01-23T09:02:44;102274.59;;;5.46;89.31
2339;BME280;1180;51.438;6.978;2023-01-23T09:05:09;102274.50;;;5.68;89.47
2339;BME280;1180;51.438;6.978;2023-01-23T09:07:35;102272.91;;;5.49;88.97
2339;BME280;1180;51.438;6.978;2023-01-23T09:10:02;102277.91;;;5.67;89.89
2339;BME280;1180;51.438;6.978;2023-01-23T09:12:28;102282.94;;;5.71;88.76
2339;BME280;1180;51.438;6.978;2023-01-23T09:14:53;102277.78;;;5.82;87.98
2339;BME280;1180;51.438;6.978;2023-01-23T09:17:19;102275.94;;;6.09;87.21
2339;BME280;1180;51.438;6.978;2023-01-23T09:19:44;102270.84;;;6.09;85.90
2339;BME280;1180;51.438;6.978;2023-01-23T09:22:09;102272.59;;;5.98;86.36
2339;BME280;1180;51.438;6.978;2023-01-23T09:24:34;102278.53;;;6.04;85.30
2339;BME280;1180;51.438;6.978;2023-01-23T09:27:00;102284.47;;;6.05;85.33
2339;BME280;1180;51.438;6.978;2023-01-23T09:29:25;102277.69;;;6.04;85.71
2339;BME280;1180;51.438;6.978;2023-01-23T09:31:50;102280.16;;;6.15;84.81
2339;BME280;1180;51.438;6.978;2023-01-23T09:41:33;102286.00;;;6.25;83.98
2339;BME280;1180;51.438;6.978;2023-01-23T09:44:11;102289.50;;;6.14;83.24
2339;BME280;1180;51.438;6.978;2023-01-23T09:46:47;102296.44;;;5.87;83.78
2339;BME280;1180;51.438;6.978;2023-01-23T09:52:29;102297.16;;;6.10;84.06
2339;BME280;1180;51.438;6.978;2023-01-23T09:57:56;102312.50;;;6.08;82.39
2339;BME280;1180;51.438;6.978;2023-01-23T10:00:30;102306.06;;;5.35;84.80
2339;BME280;1180;51.438;6.978;2023-01-23T10:02:56;102300.84;;;5.67;85.92
2339;BME280;1180;51.438;6.978;2023-01-23T10:05:31;102299.06;;;5.76;84.64
2339;BME280;1180;51.438;6.978;2023-01-23T10:26:48;102297.97;;;6.16;82.52
2339;BME280;1180;51.438;6.978;2023-01-23T10:29:38;102295.63;;;5.82;82.15
2339;BME280;1180;51.438;6.978;2023-01-23T10:32:19;102291.34;;;5.87;82.93
2339;BME280;1180;51.438;6.978;2023-01-23T10:34:57;102295.38;;;6.24;82.37
2339;BME280;1180;51.438;6.978;2023-01-23T10:40:16;102294.41;;;6.39;81.51
2339;BME280;1180;51.438;6.978;2023-01-23T10:43:02;102289.38;;;6.30;79.58
2339;BME280;1180;51.438;6.978;2023-01-23T10:45:28;102293.63;;;6.31;80.61
2339;BME280;1180;51.438;6.978;2023-01-23T10:47:54;102289.25;;;6.47;79.70
2339;BME280;1180;51.438;6.978;2023-01-23T10:50:36;102293.69;;;6.21;79.80
2339;BME280;1180;51.438;6.978;2023-01-23T10:53:10;102299.59;;;6.30;79.92
2339;BME280;1180;51.438;6.978;2023-01-23T10:55:44;102289.97;;;6.57;79.79
2339;BME280;1180;51.438;6.978;2023-01-23T11:00:51;102297.72;;;6.47;79.46
2339;BME280;1180;51.438;6.978;2023-01-23T11:13:49;102289.06;;;6.65;79.46
2339;BME280;1180;51.438;6.978;2023-01-23T11:16:18;102291.47;;;6.78;78.76
2339;BME280;1180;51.438;6.978;2023-01-23T11:21:33;102283.13;;;6.65;76.89
2339;BME280;1180;51.438;6.978;2023-01-23T11:26:46;102274.44;;;6.83;77.35
2339;BME280;1180;51.438;6.978;2023-01-23T11:29:19;102283.75;;;6.86;76.54
2339;BME280;1180;51.438;6.978;2023-01-23T11:31:47;102274.31;;;6.92;77.00
2339;BME280;1180;51.438;6.978;2023-01-23T11:34:16;102274.94;;;7.10;76.61
2339;BME280;1180;51.438;6.978;2023-01-23T11:37:14;102270.53;;;7.23;76.06
2339;BME280;1180;51.438;6.978;2023-01-23T11:40:03;102273.91;;;7.25;75.18
2339;BME280;1180;51.438;6.978;2023-01-23T11:42:38;102271.53;;;7.11;74.17
2339;BME280;1180;51.438;6.978;2023-01-23T11:45:12;102284.44;;;7.00;73.80
2339;BME280;1180;51.438;6.978;2023-01-23T11:48:06;102285.16;;;7.12;74.35
2339;BME280;1180;51.438;6.978;2023-01-23T11:50:34;102280.22;;;6.99;72.68
2339;BME280;1180;51.438;6.978;2023-01-23T11:56:04;102282.91;;;6.84;73.28
2339;BME280;1180;51.438;6.978;2023-01-23T11:58:49;102282.94;;;6.82;73.39
2339;BME280;1180;51.438;6.978;2023-01-23T12:01:35;102280.25;;;6.93;73.23
2339;BME280;1180;51.438;6.978;2023-01-23T12:09:20;102278.44;;;7.04;72.99
2339;BME280;1180;51.438;6.978;2023-01-23T12:14:34;102272.66;;;6.88;74.31
2339;BME280;1180;51.438;6.978;2023-01-23T12:17:25;102267.28;;;7.10;74.29
2339;BME280;1180;51.438;6.978;2023-01-23T12:23:06;102264.59;;;7.22;74.48
2339;BME280;1180;51.438;6.978;2023-01-23T12:25:34;102269.88;;;7.08;73.51
2339;BME280;1180;51.438;6.978;2023-01-23T12:28:07;102268.91;;;7.19;74.64
2339;BME280;1180;51.438;6.978;2023-01-23T12:41:43;102282.31;;;7.35;73.88
2339;BME280;1180;51.438;6.978;2023-01-23T12:52:02;102278.16;;;7.28;74.47
2339;BME280;1180;51.438;6.978;2023-01-23T12:54:35;102272.00;;;7.43;73.95
2339;BME280;1180;51.438;6.978;2023-01-23T12:57:03;102276.53;;;7.22;74.29
2339;BME280;1180;51.438;6.978;2023-01-23T12:59:40;102273.19;;;7.18;74.45
2339;BME280;1180;51.438;6.978;2023-01-23T13:12:38;102273.91;;;7.25;73.84
2339;BME280;1180;51.438;6.978;2023-01-23T13:17:58;102270.38;;;6.62;74.64
2339;BME280;1180;51.438;6.978;2023-01-23T13:20:30;102279.97;;;6.36;76.79
2339;BME280;1180;51.438;6.978;2023-01-23T13:23:34;102270.25;;;6.74;76.55
2339;BME280;1180;51.438;6.978;2023-01-23T13:28:45;102273.03;;;6.51;76.92
2339;BME280;1180;51.438;6.978;2023-01-23T13:31:38;102273.59;;;6.79;76.69
2339;BME280;1180;51.438;6.978;2023-01-23T13:42:41;102281.91;;;6.99;73.33
2339;BME280;1180;51.438;6.978;2023-01-23T13:45:26;102282.94;;;6.82;73.83
2339;BME280;1180;51.438;6.978;2023-01-23T13:51:16;102277.53;;;7.08;74.17
2339;BME280;1180;51.438;6.978;2023-01-23T13:53:45;102279.28;;;7.05;74.27
2339;BME280;1180;51.438;6.978;2023-01-23T13:56:30;102274.88;;;7.18;74.21
2339;BME280;1180;51.438;6.978;2023-01-23T13:59:32;102280.75;;;7.25;73.72
2339;BME280;1180;51.438;6.978;2023-01-23T14:02:13;102290.38;;;7.02;73.45
2339;BME280;1180;51.438;6.978;2023-01-23T14:05:05;102296.41;;;6.97;75.08
2339;BME280;1180;51.438;6.978;2023-01-23T14:07:40;102295.63;;;6.87;74.84
2339;BME280;1180;51.438;6.978;2023-01-23T14:10:22;102288.75;;;6.95;74.54
2339;BME280;1180;51.438;6.978;2023-01-23T14:12:48;102294.50;;;7.14;73.97
2339;BME280;1180;51.438;6.978;2023-01-23T14:15:17;102286.78;;;7.19;73.97
2339;BME280;1180;51.438;6.978;2023-01-23T14:18:02;102283.34;;;7.20;74.03
2339;BME280;1180;51.438;6.978;2023-01-23T14:20:32;102287.69;;;7.15;72.86
2339;BME280;1180;51.438;6.978;2023-01-23T14:23:12;102292.28;;;6.83;73.39
2339;BME280;1180;51.438;6.978;2023-01-23T14:25:41;102292.94;;;7.01;74.65
2339;BME280;1180;51.438;6.978;2023-01-23T14:28:06;102302.13;;;7.16;73.98
2339;BME280;1180;51.438;6.978;2023-01-23T14:30:31;102298.84;;;7.06;73.47
2339;BME280;1180;51.438;6.978;2023-01-23T14:32:57;102294.19;;;6.61;75.03
2339;BME280;1180;51.438;6.978;2023-01-23T14:35:30;102294.03;;;6.78;74.66
2339;BME280;1180;51.438;6.978;2023-01-23T14:38:04;102300.25;;;6.52;76.20
2339;BME280;1180;51.438;6.978;2023-01-23T14:40:31;102302.81;;;6.50;76.82
2339;BME280;1180;51.438;6.978;2023-01-23T14:43:05;102296.66;;;6.72;76.66
2339;BME280;1180;51.438;6.978;2023-01-23T14:45:34;102299.44;;;6.44;76.04
2339;BME280;1180;51.438;6.978;2023-01-23T14:48:04;102300.53;;;6.16;76.26
2339;BME280;1180;51.438;6.978;2023-01-23T14:50:31;102305.50;;;6.35;75.94
2339;BME280;1180;51.438;6.978;2023-01-23T14:53:02;102313.00;;;6.50;74.42
2339;BME280;1180;51.438;6.978;2023-01-23T14:55:29;102301.09;;;6.49;74.29
2339;BME280;1180;51.438;6.978;2023-01-23T14:57:57;102296.88;;;6.50;73.49
2339;BME280;1180;51.438;6.978;2023-01-23T15:00:23;102302.63;;;6.68;72.81
2339;BME280;1180;51.438;6.978;2023-01-23T15:02:49;102303.38;;;6.82;71.33
2339;BME280;1180;51.438;6.978;2023-01-23T15:07:51;102297.28;;;6.91;71.33
2339;BME280;1180;51.438;6.978;2023-01-23T15:10:26;102297.22;;;6.99;71.46
2339;BME280;1180;51.438;6.978;2023-01-23T15:15:20;102311.50;;;6.25;72.94
2339;BME280;1180;51.438;6.978;2023-01-23T15:17:46;102319.06;;;6.37;73.24
2339;BME280;1180;51.438;6.978;2023-01-23T15:20:51;102319.88;;;6.41;73.18
2339;BME280;1180;51.438;6.978;2023-01-23T15:25:42;102316.34;;;6.56;72.22
2339;BME280;1180;51.438;6.978;2023-01-23T15:28:31;102319.00;;;6.48;71.87
2339;BME280;1180;51.438;6.978;2023-01-23T15:31:01;102318.00;;;6.63;72.79
2339;BME280;1180;51.438;6.978;2023-01-23T15:33:29;102307.00;;;6.55;72.81
2339;BME280;1180;51.438;6.978;2023-01-23T15:36:07;102310.44;;;6.52;72.08
2339;BME280;1180;51.438;6.978;2023-01-23T15:38:33;102314.91;;;6.30;72.46
2339;BME280;1180;51.438;6.978;2023-01-23T15:40:59;102307.25;;;6.24;73.09
2339;BME280;1180;51.438;6.978;2023-01-23T15:43:24;102303.97;;;6.12;74.15
2339;BME280;1180;51.438;6.978;2023-01-23T15:45:50;102307.16;;;6.39;74.54
2339;BME280;1180;51.438;6.978;2023-01-23T15:48:15;102312.97;;;6.54;73.61
2339;BME280;1180;51.438;6.978;2023-01-23T15:50:41;102310.50;;;6.43;73.26
2339;BME280;1180;51.438;6.978;2023-01-23T15:53:11;102312.06;;;6.62;73.67